Archival Weather

Fayette Rgnl Air Cntr Arp

Fayette Rgnl Air Cntr Arp, Texas (K3T5)

Report from: Thursday, September 22, 2022 6:35 AM CDT
Current time: Friday, February 3, 2023 10:56 PM CST

Current weather
Weather history
Weather forecast

Present weatherMist
Temperature19.7°C (67.5°F)
Dew point19.7°C (67.5°F)
Winds Calm
Visibility3 mi. (4.8 km)
Clouds Sky clear
Altimeter30.00 in.Hg (1016 mB)
Relative humidity100 %
Density altitude771 ft. (235 m)
Remarks Fully automated report
Automated weather observing station with precipitation discriminator
Flight conditions Marginal Visual Meteorological Conditions
Raw dataK3T5 221135Z AUTO 00000KT 3SM BR CLR 20/20 A3000 RMK AO2 T01970197
An unhandled exception has occurred. See browser dev tools for details. Reload 🗙